createdAt,value
2019-06-20T00:00:25.813Z,94.42
2019-06-20T00:01:25.792Z,93.80
2019-06-20T00:02:26.036Z,94.05
2019-06-20T00:03:25.782Z,93.29
2019-06-20T00:04:25.758Z,93.24
2019-06-20T00:05:25.952Z,93.33
2019-06-20T00:06:25.747Z,93.44
2019-06-20T00:07:25.774Z,93.03
2019-06-20T00:08:26.159Z,93.33
2019-06-20T00:09:25.715Z,93.64
2019-06-20T00:10:25.704Z,93.33
2019-06-20T00:11:25.681Z,94.05
2019-06-20T00:12:25.885Z,94.05
2019-06-20T00:13:25.675Z,94.66
2019-06-20T00:14:25.650Z,94.30
2019-06-20T00:15:25.892Z,94.40
2019-06-20T00:16:25.643Z,94.40
2019-06-20T00:17:25.623Z,94.20
2019-06-20T00:18:25.607Z,94.20
2019-06-20T00:19:25.773Z,95.01
2019-06-20T00:20:25.588Z,94.50
2019-06-20T00:21:25.574Z,94.81
2019-06-20T00:22:33.564Z,94.60
2019-06-20T00:23:25.843Z,94.50
2019-06-20T00:24:25.558Z,94.71
2019-06-20T00:25:25.527Z,93.69
2019-06-20T00:26:25.916Z,94.30
2019-06-20T00:27:25.502Z,94.20
2019-06-20T00:28:25.491Z,94.20
2019-06-20T00:29:25.785Z,94.81
2019-06-20T00:30:25.493Z,94.71
2019-06-20T00:31:25.463Z,94.60
2019-06-20T00:32:25.762Z,94.81
2019-06-20T00:33:25.441Z,95.62
2019-06-20T00:34:25.441Z,95.52
2019-06-20T00:35:25.760Z,95.52
2019-06-20T00:36:25.427Z,95.21
2019-06-20T00:37:25.402Z,95.62
2019-06-20T00:38:25.757Z,95.87
2019-06-20T00:39:25.375Z,95.42
2019-06-20T00:40:25.372Z,95.42
2019-06-20T00:41:25.668Z,95.52
2019-06-20T00:42:25.352Z,95.52
2019-06-20T00:43:25.336Z,95.42
2019-06-20T00:44:25.605Z,95.32
2019-06-20T00:45:25.345Z,95.42
2019-06-20T00:46:25.300Z,95.21
2019-06-20T00:47:25.611Z,95.83
2019-06-20T00:48:25.269Z,96.14
2019-06-20T00:49:25.257Z,95.73
2019-06-20T00:50:25.592Z,95.73
2019-06-20T00:51:25.272Z,95.52
2019-06-20T00:52:25.224Z,95.73
2019-06-20T00:53:25.536Z,95.52
2019-06-20T00:54:32.691Z,95.32
2019-06-20T00:55:25.524Z,95.52
2019-06-20T00:56:25.443Z,95.48
2019-06-20T00:57:25.178Z,95.37
2019-06-20T00:58:25.212Z,95.48
2019-06-20T00:59:25.443Z,95.28
2019-06-20T01:00:25.145Z,95.58
2019-06-20T01:01:25.124Z,94.46
2019-06-20T01:02:25.474Z,94.62
2019-06-20T01:03:25.106Z,94.87
2019-06-20T01:04:25.102Z,95.48
2019-06-20T01:05:25.389Z,95.43
2019-06-20T01:06:25.088Z,94.92
2019-06-20T01:07:25.061Z,94.11
2019-06-20T01:08:25.362Z,93.70
2019-06-20T01:09:25.036Z,94.21
2019-06-20T01:10:25.061Z,93.50
2019-06-20T01:11:25.403Z,93.60
2019-06-20T01:12:25.010Z,93.09
2019-06-20T01:13:33.427Z,93.09
2019-06-20T01:14:26.336Z,93.19
2019-06-20T01:15:24.972Z,93.19
2019-06-20T01:16:24.966Z,93.33
2019-06-20T01:17:25.334Z,94.21
2019-06-20T01:18:24.943Z,93.70
2019-06-20T01:19:24.922Z,94.52
2019-06-20T01:20:25.220Z,94.31
2019-06-20T01:21:24.915Z,94.01
2019-06-20T01:22:24.897Z,93.80
2019-06-20T01:23:25.212Z,93.60
2019-06-20T01:24:24.875Z,92.99
2019-06-20T01:25:24.858Z,92.99
2019-06-20T01:26:32.336Z,93.09
2019-06-20T01:27:25.158Z,93.19
2019-06-20T01:28:24.837Z,94.37
2019-06-20T01:29:24.881Z,94.82
2019-06-20T01:30:24.806Z,94.52
2019-06-20T01:31:24.800Z,94.42
2019-06-20T01:32:25.115Z,94.82
2019-06-20T01:33:24.773Z,94.82
2019-06-20T01:34:24.770Z,94.62
2019-06-20T01:35:25.083Z,95.18
2019-06-20T01:36:24.780Z,95.49
2019-06-20T01:37:24.735Z,95.39
2019-06-20T01:38:25.001Z,95.18
2019-06-20T01:39:24.710Z,94.68
2019-06-20T01:40:24.701Z,94.47
2019-06-20T01:41:25.029Z,93.86
2019-06-20T01:42:24.682Z,93.55
2019-06-20T01:43:24.657Z,93.45
2019-06-20T01:44:24.964Z,93.35
2019-06-20T01:45:24.648Z,93.05
2019-06-20T01:46:24.623Z,93.25
2019-06-20T01:47:24.985Z,92.94
2019-06-20T01:48:24.608Z,93.55
2019-06-20T01:49:24.592Z,94.57
2019-06-20T01:50:24.871Z,94.23
2019-06-20T01:51:24.570Z,94.12
2019-06-20T01:52:24.569Z,94.32
2019-06-20T01:53:24.894Z,94.43
2019-06-20T01:54:24.538Z,93.26
2019-06-20T01:55:24.560Z,93.26
2019-06-20T01:56:24.846Z,93.57
2019-06-20T01:57:24.508Z,93.87
2019-06-20T01:58:32.453Z,93.83
2019-06-20T01:59:24.802Z,92.91
2019-06-20T02:00:24.474Z,92.91
2019-06-20T02:01:24.461Z,92.30
2019-06-20T02:02:24.455Z,92.41
2019-06-20T02:03:24.441Z,92.10
2019-06-20T02:04:24.768Z,92.10
2019-06-20T02:05:24.424Z,92.00
2019-06-20T02:06:24.446Z,91.60
2019-06-20T02:07:27.994Z,91.25
2019-06-20T02:08:24.385Z,91.75
2019-06-20T02:09:24.375Z,91.86
2019-06-20T02:10:24.704Z,91.25
2019-06-20T02:11:24.350Z,91.51
2019-06-20T02:12:24.344Z,90.94
2019-06-20T02:13:24.617Z,91.14
2019-06-20T02:14:24.335Z,90.80
2019-06-20T02:15:24.313Z,90.80
2019-06-20T02:16:24.291Z,91.00
2019-06-20T02:17:24.633Z,90.59
2019-06-20T02:18:24.274Z,90.39
2019-06-20T02:19:24.264Z,90.49
2019-06-20T02:20:24.646Z,90.19
2019-06-20T02:21:24.237Z,90.75
2019-06-20T02:22:24.235Z,90.35
2019-06-20T02:23:24.530Z,90.00
2019-06-20T02:24:24.434Z,90.26
2019-06-20T02:25:24.209Z,88.95
2019-06-20T02:26:24.497Z,87.85
2019-06-20T02:27:24.168Z,85.84
2019-06-20T02:28:24.159Z,82.93
2019-06-20T02:29:24.487Z,82.32
2019-06-20T02:31:34.246Z,83.78
2019-06-20T02:32:34.191Z,84.33
2019-06-20T02:33:33.894Z,84.08
2019-06-20T02:34:34.163Z,82.39
2019-06-20T02:35:33.867Z,79.99
2019-06-20T02:36:33.859Z,77.69
2019-06-20T02:37:34.133Z,76.91
2019-06-20T02:38:33.830Z,75.36
2019-06-20T02:39:33.822Z,75.02
2019-06-20T02:40:34.152Z,73.88
2019-06-20T02:41:33.837Z,73.11
2019-06-20T02:42:34.103Z,71.13
2019-06-20T02:43:34.143Z,69.89
2019-06-20T02:44:33.763Z,68.65
2019-06-20T02:45:33.760Z,69.66
2019-06-20T02:46:34.057Z,70.12
2019-06-20T02:47:33.764Z,70.29
2019-06-20T02:48:33.721Z,70.19
2019-06-20T02:49:33.840Z,70.12
2019-06-20T02:50:33.692Z,69.82
2019-06-20T02:51:33.686Z,69.22
2019-06-20T02:52:34.006Z,68.88
2019-06-20T02:53:33.678Z,68.12
2019-06-20T02:54:33.648Z,68.15
2019-06-20T02:55:33.909Z,69.12
2019-06-20T02:56:33.627Z,69.49
2019-06-20T02:57:33.616Z,67.95
2019-06-20T02:58:33.964Z,67.69
2019-06-20T02:59:33.593Z,66.18
2019-06-20T03:00:33.580Z,68.52
2019-06-20T03:01:33.904Z,68.42
2019-06-20T03:03:44.184Z,67.95
2019-06-20T03:04:45.725Z,67.55
2019-06-20T03:05:43.813Z,67.58
2019-06-20T03:06:43.845Z,68.62
2019-06-20T03:07:44.108Z,68.62
2019-06-20T03:08:43.788Z,68.92
2019-06-20T03:09:43.787Z,69.62
2019-06-20T03:10:44.043Z,69.32
2019-06-20T03:11:43.749Z,68.52
2019-06-20T03:12:43.736Z,70.32
2019-06-20T03:13:44.028Z,69.18
2019-06-20T03:14:45.669Z,70.50
2019-06-20T03:15:43.729Z,69.25
2019-06-20T03:16:44.027Z,67.94
2019-06-20T03:17:43.680Z,68.15
2019-06-20T03:18:43.710Z,67.71
2019-06-20T03:19:43.901Z,67.51
2019-06-20T03:20:43.680Z,66.75
2019-06-20T03:21:43.626Z,66.44
2019-06-20T03:22:43.847Z,66.31
2019-06-20T03:23:43.611Z,66.11
2019-06-20T03:24:43.597Z,67.45
2019-06-20T03:25:43.881Z,66.44
2019-06-20T03:26:43.584Z,66.21
2019-06-20T03:27:43.610Z,65.81
2019-06-20T03:28:43.767Z,65.95
2019-06-20T03:29:43.541Z,63.58
2019-06-20T03:30:43.537Z,64.72
2019-06-20T03:31:43.944Z,64.22
2019-06-20T03:32:43.511Z,65.28
2019-06-20T03:33:43.512Z,66.48
2019-06-20T03:34:51.032Z,64.25
2019-06-20T03:35:43.710Z,64.51
2019-06-20T03:36:43.476Z,64.01
2019-06-20T03:37:43.460Z,63.98
2019-06-20T03:38:43.723Z,63.39
2019-06-20T03:39:43.766Z,63.58
2019-06-20T03:40:43.538Z,63.12
2019-06-20T03:41:43.415Z,62.65
2019-06-20T03:42:43.732Z,62.68
2019-06-20T03:43:43.394Z,63.39
2019-06-20T03:44:43.386Z,63.56
2019-06-20T03:45:43.685Z,63.85
2019-06-20T03:46:43.357Z,63.02
2019-06-20T03:47:43.382Z,63.98
2019-06-20T03:48:43.668Z,66.08
2019-06-20T03:49:43.595Z,66.35
2019-06-20T03:50:43.312Z,66.35
2019-06-20T03:51:43.558Z,68.05
2019-06-20T03:52:43.287Z,69.26
2019-06-20T03:53:43.279Z,67.55
2019-06-20T03:54:43.501Z,66.22
2019-06-20T03:55:43.258Z,65.45
2019-06-20T03:56:43.245Z,65.59
2019-06-20T03:57:43.539Z,65.05
2019-06-20T03:58:43.255Z,64.69
2019-06-20T03:59:43.205Z,64.36
2019-06-20T04:00:43.523Z,64.52
2019-06-20T04:01:43.191Z,62.66
2019-06-20T04:02:43.173Z,62.83
2019-06-20T04:03:43.514Z,61.13
2019-06-20T04:04:43.156Z,60.93
2019-06-20T04:05:43.135Z,60.35
2019-06-20T04:06:50.635Z,60.61
2019-06-20T04:07:43.479Z,60.68
2019-06-20T04:08:43.470Z,59.95
2019-06-20T04:09:43.131Z,60.25
2019-06-20T04:10:43.081Z,60.58
2019-06-20T04:11:43.354Z,60.58
2019-06-20T04:12:43.065Z,60.08
2019-06-20T04:13:43.163Z,59.02
2019-06-20T04:14:43.320Z,59.00
2019-06-20T04:15:43.074Z,57.54
2019-06-20T04:16:43.022Z,55.73
2019-06-20T04:17:43.337Z,56.35
2019-06-20T04:18:42.999Z,57.10
2019-06-20T04:19:42.992Z,57.47
2019-06-20T04:20:43.355Z,55.93
2019-06-20T04:21:43.000Z,55.43
2019-06-20T04:22:42.956Z,57.28
2019-06-20T04:23:43.203Z,57.70
2019-06-20T04:24:42.936Z,57.07
2019-06-20T04:25:42.915Z,57.47
2019-06-20T04:26:43.223Z,58.33
2019-06-20T04:27:42.909Z,58.80
2019-06-20T04:28:42.883Z,58.17
2019-06-20T04:29:43.125Z,57.57
2019-06-20T04:30:42.869Z,57.67
2019-06-20T04:31:42.860Z,57.24
2019-06-20T04:32:43.166Z,57.45
2019-06-20T04:33:42.842Z,57.02
2019-06-20T04:34:42.825Z,57.37
2019-06-20T04:35:43.171Z,59.30
2019-06-20T04:36:42.837Z,60.32
2019-06-20T04:37:42.800Z,59.62
2019-06-20T04:38:50.142Z,61.05
2019-06-20T04:39:43.133Z,60.88
2019-06-20T04:40:42.756Z,60.97
2019-06-20T04:41:42.743Z,60.02
2019-06-20T04:42:43.048Z,58.89
2019-06-20T04:43:42.722Z,58.27
2019-06-20T04:44:42.713Z,57.97
2019-06-20T04:45:43.018Z,58.67
2019-06-20T04:46:42.701Z,57.35
2019-06-20T04:47:42.725Z,56.65
2019-06-20T04:48:42.927Z,56.95
2019-06-20T04:49:42.656Z,57.54
2019-06-20T04:50:42.645Z,58.80
2019-06-20T04:51:42.637Z,58.76
2019-06-20T04:52:42.933Z,59.30
2019-06-20T04:53:42.624Z,58.84
2019-06-20T04:54:42.604Z,56.89
2019-06-20T04:55:42.946Z,59.27
2019-06-20T04:56:42.592Z,58.84
2019-06-20T04:57:42.571Z,57.82
2019-06-20T04:58:42.921Z,58.24
2019-06-20T04:59:42.560Z,56.20
2019-06-20T05:00:42.539Z,56.00
2019-06-20T05:01:42.544Z,55.60
2019-06-20T05:02:42.517Z,55.40
2019-06-20T05:03:42.799Z,55.50
2019-06-20T05:04:42.509Z,54.63
2019-06-20T05:05:42.479Z,55.53
2019-06-20T05:06:42.768Z,56.92
2019-06-20T05:07:42.465Z,59.02
2019-06-20T05:08:42.445Z,60.15
2019-06-20T05:09:42.753Z,61.96
2019-06-20T05:10:50.444Z,62.13
2019-06-20T05:11:42.740Z,60.17
2019-06-20T05:12:42.413Z,56.95
2019-06-20T05:13:42.483Z,56.23
2019-06-20T05:14:42.424Z,55.40
2019-06-20T05:15:52.126Z,56.49
2019-06-20T05:16:42.710Z,55.47
2019-06-20T05:17:42.354Z,55.08
2019-06-20T05:18:42.350Z,53.73
2019-06-20T05:19:42.676Z,55.05
2019-06-20T05:20:42.378Z,55.47
2019-06-20T05:21:42.317Z,55.53
2019-06-20T05:22:42.620Z,54.97
2019-06-20T05:23:42.292Z,54.58
2019-06-20T05:24:42.279Z,54.58
2019-06-20T05:25:42.556Z,54.68
2019-06-20T05:26:42.283Z,55.30
2019-06-20T05:27:42.242Z,55.08
2019-06-20T05:28:42.526Z,54.68
2019-06-20T05:29:42.266Z,55.15
2019-06-20T05:30:42.210Z,54.33
2019-06-20T05:31:42.492Z,53.61
2019-06-20T05:32:42.186Z,53.86
2019-06-20T05:33:42.172Z,55.18
2019-06-20T05:34:42.451Z,54.65
2019-06-20T05:35:42.159Z,53.70
2019-06-20T05:36:42.156Z,53.70
2019-06-20T05:37:42.413Z,53.61
2019-06-20T05:38:42.127Z,54.46
2019-06-20T05:39:42.113Z,54.75
2019-06-20T05:40:42.406Z,53.49
2019-06-20T05:41:42.459Z,53.49
2019-06-20T05:42:49.490Z,54.46
2019-06-20T05:43:42.394Z,54.23
2019-06-20T05:44:42.055Z,53.36
2019-06-20T05:45:46.164Z,53.14
2019-06-20T05:46:42.045Z,52.81
2019-06-20T05:47:42.028Z,53.46
2019-06-20T05:48:43.218Z,52.94
2019-06-20T05:49:42.001Z,52.84
2019-06-20T05:50:41.992Z,53.31
2019-06-20T05:51:41.982Z,53.21
2019-06-20T05:52:41.975Z,52.39
2019-06-20T05:53:42.280Z,52.19
2019-06-20T05:54:41.945Z,51.10
2019-06-20T05:55:41.935Z,50.41
2019-06-20T05:56:42.150Z,50.01
2019-06-20T05:57:41.918Z,49.69
2019-06-20T05:58:41.916Z,50.40
2019-06-20T05:59:42.183Z,48.53
2019-06-20T06:00:41.893Z,49.94
2019-06-20T06:01:41.878Z,50.63
2019-06-20T06:02:41.865Z,51.89
2019-06-20T06:03:41.850Z,52.62
2019-06-20T06:04:42.944Z,53.28
2019-06-20T06:05:41.827Z,52.64
2019-06-20T06:06:41.817Z,50.75
2019-06-20T06:07:42.059Z,50.81
2019-06-20T06:08:41.793Z,48.50
2019-06-20T06:09:41.819Z,48.67
2019-06-20T06:10:42.073Z,48.67
2019-06-20T06:11:41.811Z,48.30
2019-06-20T06:12:41.755Z,48.52
2019-06-20T06:13:41.965Z,48.65
2019-06-20T06:14:49.519Z,48.96
2019-06-20T06:15:42.457Z,49.44
2019-06-20T06:16:44.117Z,49.34
2019-06-20T06:17:42.113Z,49.09
2019-06-20T06:18:41.716Z,50.43
2019-06-20T06:19:41.691Z,48.50
2019-06-20T06:20:44.815Z,50.13
2019-06-20T06:21:41.722Z,49.81
2019-06-20T06:22:44.620Z,49.32
2019-06-20T06:23:41.957Z,49.61
2019-06-20T06:24:41.625Z,49.57
2019-06-20T06:25:41.629Z,49.41
2019-06-20T06:26:41.945Z,49.61
2019-06-20T06:27:41.638Z,49.74
2019-06-20T06:28:41.575Z,49.74
2019-06-20T06:29:41.901Z,48.47
2019-06-20T06:30:41.559Z,47.44
2019-06-20T06:31:41.563Z,46.64
2019-06-20T06:32:41.836Z,46.94
2019-06-20T06:33:41.529Z,46.64
2019-06-20T06:34:41.509Z,48.15
2019-06-20T06:35:41.854Z,47.88
2019-06-20T06:36:41.531Z,47.44
2019-06-20T06:37:41.475Z,47.36
2019-06-20T06:38:41.799Z,47.98
2019-06-20T06:39:43.513Z,47.86
2019-06-20T06:40:41.444Z,47.07
2019-06-20T06:41:41.755Z,46.50
2019-06-20T06:42:41.440Z,45.49
2019-06-20T06:43:42.205Z,45.98
2019-06-20T06:44:41.671Z,46.28
2019-06-20T06:45:41.396Z,46.67
2019-06-20T06:46:55.443Z,47.78
2019-06-20T06:47:41.704Z,48.38
2019-06-20T06:48:41.687Z,47.46
2019-06-20T06:49:41.353Z,47.56
2019-06-20T06:50:41.401Z,47.68
2019-06-20T06:51:41.666Z,47.78
2019-06-20T06:52:41.337Z,46.15
2019-06-20T06:53:41.317Z,45.51
2019-06-20T06:54:41.593Z,45.78
2019-06-20T06:55:41.296Z,46.45
2019-06-20T06:56:41.276Z,45.41
2019-06-20T06:57:41.535Z,44.10
2019-06-20T06:58:41.295Z,46.12
2019-06-20T06:59:41.256Z,46.11
2019-06-20T07:00:41.547Z,44.52
2019-06-20T07:01:41.230Z,44.35
2019-06-20T07:02:41.223Z,45.23
2019-06-20T07:03:41.211Z,45.57
2019-06-20T07:04:41.207Z,45.87
2019-06-20T07:05:42.002Z,45.83
2019-06-20T07:06:41.180Z,44.86
2019-06-20T07:07:41.169Z,44.76
2019-06-20T07:08:41.148Z,44.27
2019-06-20T07:09:41.256Z,43.02
2019-06-20T07:10:41.131Z,43.93
2019-06-20T07:11:41.430Z,42.99
2019-06-20T07:12:41.112Z,44.38
2019-06-20T07:13:41.096Z,44.40
2019-06-20T07:14:42.841Z,45.71
2019-06-20T07:15:41.100Z,44.60
2019-06-20T07:16:41.068Z,43.05
2019-06-20T07:17:41.398Z,43.29
2019-06-20T07:18:48.962Z,45.76
2019-06-20T07:19:41.332Z,44.40
2019-06-20T07:20:41.027Z,43.59
2019-06-20T07:21:41.036Z,42.66
2019-06-20T07:22:41.284Z,43.27
2019-06-20T07:23:40.989Z,43.66
2019-06-20T07:24:40.983Z,43.59
2019-06-20T07:25:41.253Z,41.99
2019-06-20T07:26:40.961Z,42.29
2019-06-20T07:27:40.985Z,43.63
2019-06-20T07:28:41.230Z,43.49
2019-06-20T07:29:40.926Z,43.40
2019-06-20T07:30:41.288Z,42.05
2019-06-20T07:31:40.909Z,41.59
2019-06-20T07:32:40.894Z,41.02
2019-06-20T07:33:41.257Z,41.43
2019-06-20T07:34:40.877Z,42.30
2019-06-20T07:35:41.980Z,44.01
2019-06-20T07:36:41.216Z,42.97
2019-06-20T07:37:40.838Z,41.93
2019-06-20T07:38:40.831Z,43.55
2019-06-20T07:39:41.142Z,43.31
2019-06-20T07:40:40.809Z,43.83
2019-06-20T07:41:40.794Z,44.23
2019-06-20T07:42:41.083Z,43.49
2019-06-20T07:43:40.780Z,44.28
2019-06-20T07:44:40.760Z,44.87
2019-06-20T07:45:41.090Z,44.31
2019-06-20T07:46:40.771Z,42.66
2019-06-20T07:47:40.739Z,42.14
2019-06-20T07:48:41.070Z,42.29
2019-06-20T07:49:40.709Z,44.20
2019-06-20T07:50:48.141Z,43.31
2019-06-20T07:51:41.050Z,43.61
2019-06-20T07:52:40.688Z,42.29
2019-06-20T07:53:40.682Z,42.02
2019-06-20T07:54:40.970Z,42.79
2019-06-20T07:55:40.641Z,41.16
2019-06-20T07:56:40.637Z,41.55
2019-06-20T07:57:40.941Z,40.11
2019-06-20T07:58:40.618Z,42.68
2019-06-20T07:59:40.646Z,43.79
2019-06-20T08:00:40.873Z,43.87
2019-06-20T08:01:40.632Z,42.83
2019-06-20T08:02:40.566Z,42.00
2019-06-20T08:03:44.438Z,41.51
2019-06-20T08:04:40.545Z,42.22
2019-06-20T08:05:40.547Z,44.97
2019-06-20T08:06:40.828Z,43.47
2019-06-20T08:07:40.521Z,43.23
2019-06-20T08:08:40.540Z,44.09
2019-06-20T08:09:44.691Z,44.14
2019-06-20T08:10:40.497Z,43.41
2019-06-20T08:11:40.754Z,42.42
2019-06-20T08:12:40.469Z,43.74
2019-06-20T08:13:40.454Z,43.73
2019-06-20T08:15:40.425Z,41.91
2019-06-20T08:16:40.424Z,42.16
2019-06-20T08:17:40.701Z,40.88
2019-06-20T08:18:40.403Z,40.62
2019-06-20T08:19:40.395Z,39.79
2019-06-20T08:20:40.751Z,39.17
2019-06-20T08:21:40.394Z,39.42
2019-06-20T08:22:47.865Z,39.28
2019-06-20T08:23:40.624Z,41.00
2019-06-20T08:24:40.661Z,41.83
2019-06-20T08:25:40.365Z,42.56
2019-06-20T08:26:40.323Z,42.24
2019-06-20T08:27:40.608Z,41.43
2019-06-20T08:28:40.298Z,41.41
2019-06-20T08:29:40.290Z,39.95
2019-06-20T08:30:40.552Z,38.93
2019-06-20T08:31:40.285Z,37.92
2019-06-20T08:32:40.253Z,39.11
2019-06-20T08:33:40.619Z,37.92
2019-06-20T08:34:40.235Z,37.84
2019-06-20T08:35:40.221Z,38.90
2019-06-20T08:36:40.559Z,39.09
2019-06-20T08:37:40.200Z,39.52
2019-06-20T08:38:40.227Z,41.95
2019-06-20T08:39:40.506Z,42.24
2019-06-20T08:40:40.174Z,42.44
2019-06-20T08:41:40.157Z,43.52
2019-06-20T08:42:40.469Z,42.14
2019-06-20T08:43:40.145Z,42.38
2019-06-20T08:44:40.137Z,44.18
2019-06-20T08:45:40.465Z,43.52
2019-06-20T08:46:40.132Z,41.95
2019-06-20T08:47:40.120Z,41.93
2019-06-20T08:48:40.390Z,42.48
2019-06-20T08:49:40.110Z,44.84
2019-06-20T08:50:40.075Z,42.19
2019-06-20T08:51:40.339Z,41.85
2019-06-20T08:52:40.042Z,42.46
2019-06-20T08:53:40.034Z,42.19
2019-06-20T08:54:47.633Z,39.73
2019-06-20T08:55:40.278Z,41.97
2019-06-20T08:56:40.313Z,42.52
2019-06-20T08:57:39.994Z,42.99
2019-06-20T08:58:39.983Z,42.29
2019-06-20T08:59:40.309Z,42.48
2019-06-20T09:00:39.979Z,40.64
2019-06-20T09:01:39.952Z,41.43
2019-06-20T09:02:40.194Z,41.00
2019-06-20T09:03:39.929Z,41.46
2019-06-20T09:04:39.923Z,43.53
2019-06-20T09:05:40.240Z,42.52
2019-06-20T09:06:39.898Z,41.57
2019-06-20T09:07:41.777Z,40.92
2019-06-20T09:08:40.255Z,41.65
2019-06-20T09:09:40.834Z,38.97
2019-06-20T09:10:39.865Z,41.17
2019-06-20T09:11:40.121Z,41.31
2019-06-20T09:12:39.840Z,43.23
2019-06-20T09:13:40.676Z,44.16
2019-06-20T09:14:40.121Z,41.85
2019-06-20T09:15:39.842Z,42.38
2019-06-20T09:16:39.791Z,40.90
2019-06-20T09:17:40.110Z,40.39
2019-06-20T09:18:39.772Z,40.74
2019-06-20T09:19:39.762Z,39.58
2019-06-20T09:20:40.029Z,41.53
2019-06-20T09:21:39.796Z,42.34
2019-06-20T09:22:39.724Z,43.35
2019-06-20T09:23:40.081Z,42.44
2019-06-20T09:24:39.712Z,42.05
2019-06-20T09:25:39.705Z,42.20
2019-06-20T09:26:47.683Z,42.13
2019-06-20T09:27:40.028Z,43.37
2019-06-20T09:28:39.664Z,43.37
2019-06-20T09:29:42.049Z,43.37
2019-06-20T09:30:39.862Z,44.36
2019-06-20T09:31:39.646Z,42.07
2019-06-20T09:32:39.633Z,42.40
2019-06-20T09:33:40.007Z,43.45
2019-06-20T09:34:39.601Z,45.65
2019-06-20T09:35:39.589Z,47.09
2019-06-20T09:36:39.918Z,46.45
2019-06-20T09:37:39.580Z,43.61
2019-06-20T09:38:39.572Z,42.56
2019-06-20T09:39:39.858Z,42.02
2019-06-20T09:40:39.539Z,41.17
2019-06-20T09:41:39.531Z,41.17
2019-06-20T09:42:39.844Z,41.33
2019-06-20T09:43:39.519Z,43.45
2019-06-20T09:44:39.502Z,43.33
2019-06-20T09:45:39.485Z,44.50
2019-06-20T09:46:39.478Z,45.93
2019-06-20T09:47:39.859Z,46.27
2019-06-20T09:48:39.460Z,44.65
2019-06-20T09:49:39.458Z,42.54
2019-06-20T09:50:39.778Z,44.32
2019-06-20T09:51:39.432Z,42.61
2019-06-20T09:52:39.414Z,43.09
2019-06-20T09:53:39.760Z,41.91
2019-06-20T09:54:39.396Z,41.77
2019-06-20T09:55:39.383Z,41.17
2019-06-20T09:56:39.682Z,41.83
2019-06-20T09:57:39.368Z,41.91
2019-06-20T09:58:47.906Z,42.56
2019-06-20T09:59:39.640Z,41.75
2019-06-20T10:00:39.329Z,41.51
2019-06-20T10:01:39.444Z,42.16
2019-06-20T10:02:39.310Z,42.46
2019-06-20T10:03:39.331Z,44.09
2019-06-20T10:04:39.632Z,41.55
2019-06-20T10:05:39.282Z,41.87
2019-06-20T10:06:39.273Z,45.23
2019-06-20T10:07:39.584Z,45.57
2019-06-20T10:08:39.249Z,43.31
2019-06-20T10:09:39.412Z,42.29
2019-06-20T10:10:39.640Z,44.20
2019-06-20T10:11:39.220Z,43.25
2019-06-20T10:12:39.205Z,41.91
2019-06-20T10:13:39.489Z,44.64
2019-06-20T10:14:39.197Z,45.38
2019-06-20T10:15:39.172Z,43.24
2019-06-20T10:16:45.852Z,41.61
2019-06-20T10:17:39.148Z,41.79
2019-06-20T10:18:39.139Z,40.74
2019-06-20T10:19:39.129Z,40.84
2019-06-20T10:20:39.396Z,40.92
2019-06-20T10:21:39.441Z,39.54
2019-06-20T10:22:39.099Z,37.71
2019-06-20T10:23:39.111Z,38.99
2019-06-20T10:24:39.412Z,40.11
2019-06-20T10:25:39.073Z,40.90
2019-06-20T10:26:39.068Z,40.82
2019-06-20T10:27:39.389Z,40.64
2019-06-20T10:28:39.035Z,40.74
2019-06-20T10:29:39.024Z,39.73
2019-06-20T10:30:46.524Z,41.39
2019-06-20T10:31:39.321Z,40.51
2019-06-20T10:32:38.993Z,39.09
2019-06-20T10:33:38.989Z,40.90
2019-06-20T10:34:39.283Z,39.58
2019-06-20T10:35:38.966Z,39.70
2019-06-20T10:36:38.967Z,38.87
2019-06-20T10:37:39.225Z,38.66
2019-06-20T10:38:38.938Z,39.39
2019-06-20T10:39:38.928Z,39.74
2019-06-20T10:40:39.231Z,39.20
2019-06-20T10:41:38.909Z,41.22
2019-06-20T10:42:38.909Z,40.31
2019-06-20T10:43:39.225Z,40.25
2019-06-20T10:44:38.874Z,40.31
2019-06-20T10:45:38.856Z,40.80
2019-06-20T10:46:39.173Z,40.01
2019-06-20T10:47:38.855Z,39.42
2019-06-20T10:48:38.833Z,39.26
2019-06-20T10:49:39.152Z,39.32
2019-06-20T10:50:38.817Z,39.40
2019-06-20T10:51:38.796Z,39.78
2019-06-20T10:52:39.099Z,38.20
2019-06-20T10:53:38.784Z,38.20
2019-06-20T10:54:38.780Z,38.10
2019-06-20T10:55:40.596Z,37.40
2019-06-20T10:56:38.744Z,35.78
2019-06-20T10:57:41.326Z,37.55
2019-06-20T10:58:41.464Z,38.05
2019-06-20T10:59:39.893Z,39.40
2019-06-20T11:00:40.038Z,39.72
2019-06-20T11:01:39.868Z,39.50
2019-06-20T11:02:47.055Z,39.58
2019-06-20T11:03:39.285Z,38.38
2019-06-20T11:04:40.494Z,38.99
2019-06-20T11:05:39.301Z,38.99
2019-06-20T11:06:39.879Z,38.36
2019-06-20T11:07:40.343Z,35.46
2019-06-20T11:08:39.139Z,36.22
2019-06-20T11:09:40.170Z,36.52
2019-06-20T11:10:40.349Z,38.60
2019-06-20T11:11:39.862Z,37.74
2019-06-20T11:12:45.613Z,38.87
2019-06-20T11:13:39.519Z,38.22
2019-06-20T11:14:39.129Z,40.80
2019-06-20T11:15:39.253Z,42.43
2019-06-20T11:16:40.108Z,42.14
2019-06-20T11:17:39.176Z,41.61
2019-06-20T11:18:39.966Z,41.22
2019-06-20T11:19:39.730Z,41.00
2019-06-20T11:20:39.497Z,39.78
2019-06-20T11:21:39.759Z,39.73
2019-06-20T11:22:39.877Z,38.81
2019-06-20T11:23:39.413Z,37.20
2019-06-20T11:24:39.214Z,41.57
2019-06-20T11:25:40.170Z,42.92
2019-06-20T11:26:39.385Z,42.07
2019-06-20T11:27:38.753Z,42.08
2019-06-20T11:28:39.293Z,40.90
2019-06-20T11:29:38.408Z,38.99
2019-06-20T11:30:53.491Z,37.67
2019-06-20T11:31:43.416Z,37.36
2019-06-20T11:32:39.418Z,37.59
2019-06-20T11:33:39.033Z,37.87
2019-06-20T11:34:47.553Z,38.54
2019-06-20T11:35:39.288Z,37.63
2019-06-20T11:36:38.735Z,37.67
2019-06-20T11:37:39.633Z,37.40
2019-06-20T11:38:39.613Z,38.02
2019-06-20T11:39:38.904Z,39.03
2019-06-20T11:40:39.661Z,39.60
2019-06-20T11:41:39.578Z,39.01
2019-06-20T11:42:38.268Z,38.30
2019-06-20T11:43:38.449Z,37.51
2019-06-20T11:44:38.923Z,39.68
2019-06-20T11:45:38.927Z,38.05
2019-06-20T11:46:38.576Z,41.43
2019-06-20T11:47:38.480Z,42.60
2019-06-20T11:48:38.490Z,42.03
2019-06-20T11:49:38.237Z,42.22
2019-06-20T11:50:39.924Z,43.24
2019-06-20T11:51:38.174Z,44.70
2019-06-20T11:52:41.045Z,41.31
2019-06-20T11:53:38.583Z,41.51
2019-06-20T11:54:38.288Z,41.41
2019-06-20T11:55:38.132Z,39.52
2019-06-20T11:56:38.428Z,39.89
2019-06-20T11:57:38.125Z,39.73
2019-06-20T11:58:38.114Z,39.86
2019-06-20T11:59:38.471Z,40.76
2019-06-20T12:00:38.089Z,39.62
2019-06-20T12:01:39.588Z,39.54
2019-06-20T12:02:40.499Z,37.63
2019-06-20T12:03:39.195Z,38.72
2019-06-20T12:04:38.249Z,39.05
2019-06-20T12:05:38.461Z,39.37
2019-06-20T12:06:47.047Z,38.76
2019-06-20T12:07:39.555Z,39.44
2019-06-20T12:08:39.083Z,39.05
2019-06-20T12:09:39.565Z,39.23
2019-06-20T12:10:39.226Z,39.03
2019-06-20T12:11:39.077Z,39.23
2019-06-20T12:12:39.060Z,38.07
2019-06-20T12:13:39.336Z,39.26
2019-06-20T12:14:39.407Z,39.17
2019-06-20T12:15:38.028Z,39.18
2019-06-20T12:16:39.167Z,37.24
2019-06-20T12:17:38.197Z,38.85
2019-06-20T12:18:39.760Z,41.30
2019-06-20T12:19:39.339Z,42.44
2019-06-20T12:20:39.179Z,43.43
2019-06-20T12:21:37.981Z,42.50
2019-06-20T12:22:38.290Z,43.13
2019-06-20T12:23:39.016Z,45.41
2019-06-20T12:24:39.570Z,44.94
2019-06-20T12:25:39.065Z,46.30
2019-06-20T12:26:38.946Z,43.41
2019-06-20T12:27:38.832Z,43.31
2019-06-20T12:28:39.081Z,44.23
2019-06-20T12:29:39.313Z,44.64
2019-06-20T12:30:39.767Z,46.12
2019-06-20T12:31:37.753Z,44.67
2019-06-20T12:32:39.132Z,44.19
2019-06-20T12:33:39.095Z,44.96
2019-06-20T12:34:38.818Z,41.89
2019-06-20T12:35:39.168Z,40.82
2019-06-20T12:36:38.096Z,38.64
2019-06-20T12:37:37.686Z,37.92
2019-06-20T12:38:46.291Z,37.27
2019-06-20T12:39:39.216Z,35.99
2019-06-20T12:40:39.157Z,36.37
2019-06-20T12:41:39.594Z,35.52
2019-06-20T12:42:39.140Z,35.21
2019-06-20T12:43:39.068Z,36.47
2019-06-20T12:44:39.014Z,39.92
2019-06-20T12:45:38.233Z,42.44
2019-06-20T12:46:39.377Z,41.30
2019-06-20T12:47:38.805Z,41.95
2019-06-20T12:48:38.126Z,39.50
2019-06-20T12:49:38.963Z,37.44
2019-06-20T12:50:38.502Z,37.42
2019-06-20T12:51:39.090Z,39.19
2019-06-20T12:52:38.917Z,35.42
2019-06-20T12:53:38.748Z,36.34
2019-06-20T12:54:38.149Z,37.36
2019-06-20T12:55:38.937Z,35.30